Time;durP1;ratioP1;P1;durP2;ratioP2;P2;SDS_P1;SDS_P2;PMS_P1;PMS_P2;Temp;Humidity;BMP_temperature;BMP_pressure;BME280_temperature;BME280_humidity;BME280_pressure;Samples;Min_cycle;Max_cycle;Signal;HPM_P1;HPM_P2
2023/09/19 00:00:08;;;;;;;8.97;4.10;;;15.30;1.00;;;;;;5035061;28;20464;-64
2023/09/19 00:02:36;;;;;;;9.87;4.07;;;15.30;1.00;;;;;;5035428;28;20527;-64
2023/09/19 00:05:05;;;;;;;8.87;4.07;;;15.30;1.00;;;;;;5035468;28;20471;-63
2023/09/19 00:07:32;;;;;;;8.40;3.60;;;15.20;1.00;;;;;;5035126;28;20811;-63
2023/09/19 00:10:00;;;;;;;8.57;4.33;;;15.20;1.00;;;;;;5035128;28;20516;-63
2023/09/19 00:12:27;;;;;;;8.30;3.80;;;15.10;1.00;;;;;;5035164;28;20442;-64
2023/09/19 00:14:54;;;;;;;7.53;4.20;;;15.10;1.00;;;;;;5035153;28;20494;-63
2023/09/19 00:17:22;;;;;;;13.83;3.70;;;15.10;1.00;;;;;;5034942;28;20463;-63
2023/09/19 00:19:52;;;;;;;9.27;4.37;;;15.10;1.00;;;;;;5034908;28;20455;-63
2023/09/19 00:22:21;;;;;;;8.60;3.50;;;15.10;63.10;;;;;;5035005;28;20491;-63
2023/09/19 00:24:48;;;;;;;6.83;4.00;;;15.00;46.90;;;;;;5035090;28;20438;-64
2023/09/19 00:27:16;;;;;;;10.10;3.60;;;15.00;99.90;;;;;;5034718;28;20868;-64
2023/09/19 00:29:43;;;;;;;12.57;4.57;;;15.00;99.90;;;;;;5034938;28;20517;-63
2023/09/19 00:32:10;;;;;;;7.97;3.60;;;15.00;99.90;;;;;;5034986;28;20482;-64
2023/09/19 00:34:37;;;;;;;8.27;3.87;;;15.00;91.80;;;;;;5035219;28;20463;-64
2023/09/19 00:37:04;;;;;;;9.83;3.73;;;15.00;99.90;;;;;;5034421;28;20526;-64
2023/09/19 00:39:33;;;;;;;7.43;3.97;;;15.00;99.90;;;;;;5034712;28;20550;-64
2023/09/19 00:42:04;;;;;;;7.13;3.80;;;14.90;99.90;;;;;;5034491;28;20488;-64
2023/09/19 00:44:34;;;;;;;9.67;3.27;;;14.90;99.90;;;;;;5034831;28;20884;-64
2023/09/19 00:47:02;;;;;;;5.63;3.70;;;14.90;77.20;;;;;;5034821;28;20464;-63
2023/09/19 00:49:30;;;;;;;12.20;4.00;;;14.90;1.00;;;;;;5034511;28;20793;-63
2023/09/19 00:51:58;;;;;;;8.03;4.30;;;14.90;50.50;;;;;;5034729;28;20554;-63
2023/09/19 00:54:28;;;;;;;10.93;4.37;;;14.90;6.00;;;;;;5034604;28;20470;-65
2023/09/19 00:56:57;;;;;;;11.43;4.10;;;14.90;1.00;;;;;;5034348;28;20888;-64
2023/09/19 00:59:24;;;;;;;7.10;3.63;;;14.80;1.00;;;;;;5034009;28;20820;-62
2023/09/19 01:01:54;;;;;;;9.90;3.90;;;14.90;1.00;;;;;;5032514;28;20509;-63
2023/09/19 01:04:21;;;;;;;9.03;4.10;;;14.80;1.00;;;;;;5034699;28;20820;-63
2023/09/19 01:06:52;;;;;;;9.97;4.30;;;14.80;1.00;;;;;;5033954;28;20829;-63
2023/09/19 01:09:20;;;;;;;11.87;4.40;;;14.70;1.00;;;;;;5034270;28;20535;-63
2023/09/19 01:11:49;;;;;;;10.57;3.90;;;14.80;1.00;;;;;;5034490;28;20834;-64
2023/09/19 01:14:28;;;;;;;10.63;4.37;;;14.80;1.00;;;;;;5034417;28;20455;-63
2023/09/19 01:17:06;;;;;;;12.80;4.30;;;14.80;1.00;;;;;;5034528;28;20877;-62
2023/09/19 01:20:11;;;;;;;10.50;3.93;;;14.70;1.00;;;;;;5034262;28;20469;-63
2023/09/19 01:22:47;;;;;;;11.93;4.10;;;14.70;1.00;;;;;;5034236;28;20529;-64
2023/09/19 01:25:52;;;;;;;7.60;4.10;;;14.70;1.00;;;;;;5034118;28;20459;-64
2023/09/19 01:28:36;;;;;;;9.23;4.10;;;14.70;1.00;;;;;;5034353;28;20482;-63
2023/09/19 01:31:10;;;;;;;10.83;3.70;;;14.70;1.00;;;;;;5034302;28;20470;-64
2023/09/19 01:34:00;;;;;;;10.50;3.87;;;14.70;1.00;;;;;;5034196;28;20903;-64
2023/09/19 01:36:35;;;;;;;7.77;3.97;;;14.70;1.00;;;;;;5034563;28;20467;-64
2023/09/19 01:39:10;;;;;;;8.23;3.37;;;14.70;1.00;;;;;;5033741;28;20473;-65
2023/09/19 01:41:53;;;;;;;9.23;3.43;;;14.70;1.00;;;;;;5033891;28;20818;-64
2023/09/19 01:44:31;;;;;;;12.27;4.23;;;14.80;1.00;;;;;;5034130;28;20463;-63
2023/09/19 01:47:11;;;;;;;10.73;3.50;;;14.70;1.00;;;;;;5033812;28;20452;-65
2023/09/19 01:49:50;;;;;;;12.07;4.10;;;14.70;1.00;;;;;;5034023;28;20459;-65
2023/09/19 01:52:19;;;;;;;10.97;4.57;;;14.70;1.00;;;;;;5033180;28;20550;-65
2023/09/19 01:54:52;;;;;;;12.90;4.33;;;14.70;1.00;;;;;;5034043;28;20516;-65
2023/09/19 01:57:32;;;;;;;11.17;3.73;;;14.70;1.00;;;;;;5033388;28;20553;-64
2023/09/19 02:00:06;;;;;;;10.50;4.60;;;14.60;1.00;;;;;;5033580;28;20844;-64
2023/09/19 02:02:37;;;;;;;8.20;2.87;;;14.60;1.00;;;;;;5033790;28;20510;-64
2023/09/19 02:05:06;;;;;;;10.17;4.20;;;14.70;1.00;;;;;;5033590;28;20562;-65
2023/09/19 02:07:33;;;;;;;10.57;3.47;;;14.60;1.00;;;;;;5033222;28;20464;-64
2023/09/19 02:10:01;;;;;;;12.07;4.60;;;14.60;1.00;;;;;;5033231;28;20512;-64
2023/09/19 02:12:28;;;;;;;9.57;4.27;;;14.60;1.00;;;;;;5034290;28;20495;-64
2023/09/19 02:14:57;;;;;;;11.97;3.50;;;14.60;1.00;;;;;;5037144;28;20462;-64
2023/09/19 02:17:25;;;;;;;10.87;4.90;;;14.60;1.00;;;;;;5036409;28;20470;-65
2023/09/19 02:19:54;;;;;;;9.43;3.60;;;14.60;1.00;;;;;;5037120;28;20520;-64
2023/09/19 02:22:24;;;;;;;13.13;4.67;;;14.60;99.90;;;;;;5036876;28;20495;-65
2023/09/19 02:24:52;;;;;;;13.67;4.20;;;14.50;99.90;;;;;;5037006;28;20466;-64
2023/09/19 02:27:19;;;;;;;10.63;4.23;;;14.60;99.90;;;;;;5036553;28;20509;-65
2023/09/19 02:29:47;;;;;;;10.23;4.13;;;14.60;99.90;;;;;;5036142;28;20968;-65
2023/09/19 02:32:14;;;;;;;9.57;4.10;;;14.50;99.90;;;;;;5036699;28;20516;-64
2023/09/19 02:34:42;;;;;;;9.13;3.53;;;14.60;99.90;;;;;;5036645;28;20479;-64
2023/09/19 02:37:13;;;;;;;9.47;4.53;;;14.60;99.90;;;;;;5038472;27;20880;-64
2023/09/19 02:39:40;;;;;;;12.90;4.50;;;14.50;99.90;;;;;;5036369;28;20810;-64
2023/09/19 02:42:07;;;;;;;10.60;3.90;;;14.50;99.90;;;;;;5036295;28;20868;-63
2023/09/19 02:44:35;;;;;;;7.30;4.10;;;14.60;99.90;;;;;;5036647;28;20463;-64
2023/09/19 02:47:02;;;;;;;8.87;4.07;;;14.50;99.90;;;;;;5036390;28;20524;-65
2023/09/19 02:49:30;;;;;;;9.37;3.90;;;14.50;99.90;;;;;;5036129;28;20962;-63
2023/09/19 02:51:59;;;;;;;8.60;3.83;;;14.50;1.00;;;;;;5035991;28;20459;-63
2023/09/19 02:54:28;;;;;;;9.20;4.00;;;14.50;1.00;;;;;;5036908;28;20491;-63
2023/09/19 02:56:56;;;;;;;7.23;3.60;;;14.40;1.00;;;;;;5036549;28;20596;-64
2023/09/19 02:59:28;;;;;;;5.53;3.50;;;14.40;1.00;;;;;;5035176;28;20467;-63
2023/09/19 03:01:55;;;;;;;9.50;3.53;;;14.40;1.00;;;;;;5034596;28;20488;-63
2023/09/19 03:04:23;;;;;;;11.70;4.10;;;14.40;1.00;;;;;;5034828;28;20455;-63
2023/09/19 03:06:51;;;;;;;10.73;4.13;;;14.40;1.00;;;;;;5035023;28;20464;-62
2023/09/19 03:09:19;;;;;;;12.47;4.07;;;14.40;1.00;;;;;;5034559;28;20562;-62
2023/09/19 03:11:48;;;;;;;9.90;4.07;;;14.40;1.00;;;;;;5034150;28;20459;-62
2023/09/19 03:14:15;;;;;;;9.57;4.70;;;14.30;1.00;;;;;;5035115;28;20893;-62
2023/09/19 03:16:44;;;;;;;12.37;4.63;;;14.30;1.00;;;;;;5036032;28;20813;-61
2023/09/19 03:19:12;;;;;;;12.37;4.33;;;14.30;1.00;;;;;;5036180;28;20456;-62
2023/09/19 03:21:39;;;;;;;10.10;4.30;;;14.30;1.00;;;;;;5035788;28;20455;-62
2023/09/19 03:24:07;;;;;;;9.20;3.70;;;14.30;1.00;;;;;;5034293;28;20498;-61
2023/09/19 03:26:34;;;;;;;10.40;3.67;;;14.20;1.00;;;;;;5035766;28;20499;-62
2023/09/19 03:29:08;;;;;;;7.90;3.60;;;14.20;1.00;;;;;;5035708;28;20482;-61
2023/09/19 03:31:37;;;;;;;9.57;3.70;;;14.20;1.00;;;;;;5035563;28;20904;-61
2023/09/19 03:34:05;;;;;;;7.50;3.53;;;14.20;99.90;;;;;;5035921;28;20459;-61
2023/09/19 03:36:34;;;;;;;9.50;3.80;;;14.20;99.90;;;;;;5035941;28;20754;-61
2023/09/19 03:39:04;;;;;;;8.63;4.23;;;14.20;1.00;;;;;;5035808;28;20471;-61
2023/09/19 03:41:32;;;;;;;8.40;3.60;;;14.10;99.90;;;;;;5035570;28;20775;-63
2023/09/19 03:44:00;;;;;;;11.93;3.70;;;14.10;99.90;;;;;;5035672;28;20504;-61
2023/09/19 03:46:30;;;;;;;9.43;3.93;;;14.10;1.00;;;;;;5035425;28;20523;-60
2023/09/19 03:48:57;;;;;;;10.50;3.90;;;14.10;1.00;;;;;;5035424;28;20571;-61
2023/09/19 03:51:24;;;;;;;8.67;3.30;;;14.10;1.00;;;;;;5035347;28;20837;-61
2023/09/19 03:53:51;;;;;;;12.30;4.90;;;14.00;99.90;;;;;;5035281;28;20512;-61
2023/09/19 03:56:18;;;;;;;13.30;4.13;;;14.00;79.10;;;;;;5035489;28;20713;-60
2023/09/19 03:58:46;;;;;;;6.37;3.37;;;13.90;1.00;;;;;;5035559;28;20497;-61
2023/09/19 04:01:13;;;;;;;6.23;2.97;;;13.90;1.00;;;;;;5034680;28;20479;-61
2023/09/19 04:03:48;;;;;;;11.70;4.07;;;13.90;1.00;;;;;;5033430;28;20506;-60
2023/09/19 04:06:15;;;;;;;6.90;4.07;;;13.90;1.00;;;;;;5015531;28;20487;-60
2023/09/19 04:08:43;;;;;;;9.93;4.00;;;13.90;1.00;;;;;;5015601;28;20487;-62
2023/09/19 04:11:10;;;;;;;7.33;3.70;;;13.90;1.00;;;;;;5015676;28;20460;-60
2023/09/19 04:13:38;;;;;;;9.20;4.00;;;13.90;1.00;;;;;;5015275;28;20486;-61
2023/09/19 04:16:07;;;;;;;14.30;3.53;;;13.90;1.00;;;;;;5013808;28;20470;-60
2023/09/19 04:18:37;;;;;;;8.77;4.43;;;13.80;1.00;;;;;;5015421;28;20464;-61
2023/09/19 04:21:06;;;;;;;8.70;3.33;;;13.90;1.00;;;;;;5028921;28;20543;-60
2023/09/19 04:23:34;;;;;;;7.90;3.43;;;13.90;1.00;;;;;;5033078;28;20487;-61
2023/09/19 04:26:03;;;;;;;8.47;3.47;;;13.80;1.00;;;;;;5034148;28;20459;-60
2023/09/19 04:28:31;;;;;;;11.60;4.50;;;13.90;1.00;;;;;;5034366;28;20459;-60
2023/09/19 04:30:58;;;;;;;6.80;3.47;;;13.80;1.00;;;;;;5035126;28;20510;-59
2023/09/19 04:33:27;;;;;;;7.30;3.93;;;13.90;1.00;;;;;;5034741;28;20550;-59
2023/09/19 04:35:55;;;;;;;10.43;3.70;;;13.90;1.00;;;;;;5034815;28;20516;-60
2023/09/19 04:38:23;;;;;;;10.87;3.57;;;13.90;1.00;;;;;;5034803;28;20749;-59
2023/09/19 04:40:50;;;;;;;8.77;4.50;;;13.80;32.60;;;;;;5034635;28;20463;-59
2023/09/19 04:43:18;;;;;;;7.47;3.63;;;13.80;1.00;;;;;;5034495;28;20523;-59
2023/09/19 04:45:46;;;;;;;16.33;4.40;;;13.80;14.70;;;;;;5034360;28;20859;-59
2023/09/19 04:48:14;;;;;;;9.53;3.80;;;13.80;99.90;;;;;;5034729;28;20506;-59
2023/09/19 04:50:41;;;;;;;6.80;3.40;;;13.80;99.90;;;;;;5034606;28;20876;-59
2023/09/19 04:53:08;;;;;;;7.77;3.40;;;13.80;1.00;;;;;;5031333;28;20475;-59
2023/09/19 04:55:37;;;;;;;9.13;4.00;;;13.80;1.00;;;;;;5033892;28;20482;-59
2023/09/19 04:58:05;;;;;;;12.53;3.40;;;13.70;84.00;;;;;;5033640;28;20951;-60
2023/09/19 05:00:35;;;;;;;14.77;4.60;;;13.80;1.00;;;;;;5033782;28;20483;-58
2023/09/19 05:03:05;;;;;;;11.43;5.63;;;13.80;79.60;;;;;;5033796;28;20487;-59
2023/09/19 05:05:34;;;;;;;11.40;3.70;;;13.70;95.90;;;;;;5034553;28;20558;-59
2023/09/19 05:08:05;;;;;;;10.37;3.63;;;13.70;99.90;;;;;;5034073;28;20474;-59
2023/09/19 05:10:32;;;;;;;13.37;4.03;;;13.70;99.90;;;;;;5033637;28;20771;-59
2023/09/19 05:13:01;;;;;;;11.83;4.40;;;13.70;99.90;;;;;;5033532;28;20530;-59
2023/09/19 05:15:28;;;;;;;11.67;4.70;;;13.60;99.90;;;;;;5033326;28;20463;-59
2023/09/19 05:17:55;;;;;;;10.67;4.10;;;13.60;99.90;;;;;;5034124;28;20548;-59
2023/09/19 05:20:29;;;;;;;10.07;4.00;;;13.60;28.80;;;;;;5034279;28;20463;-59
2023/09/19 05:23:01;;;;;;;9.10;4.60;;;13.60;99.90;;;;;;5032971;28;20449;-59
2023/09/19 05:25:29;;;;;;;8.90;3.60;;;13.60;1.00;;;;;;5033954;28;20466;-58
2023/09/19 05:28:03;;;;;;;8.50;4.30;;;13.50;1.00;;;;;;5033915;28;20471;-59
2023/09/19 05:30:30;;;;;;;9.73;3.50;;;13.50;99.90;;;;;;5044004;28;20467;-59
2023/09/19 05:32:58;;;;;;;12.80;4.90;;;13.50;99.90;;;;;;5033657;28;20512;-59
2023/09/19 05:35:26;;;;;;;10.20;3.67;;;13.50;99.90;;;;;;5033116;28;20830;-59
2023/09/19 05:37:55;;;;;;;7.90;3.47;;;13.50;99.90;;;;;;5033834;28;20517;-58
2023/09/19 05:40:23;;;;;;;13.57;4.00;;;13.60;99.90;;;;;;5032666;28;20464;-59
2023/09/19 05:42:50;;;;;;;10.70;3.90;;;13.70;95.20;;;;;;5032798;28;20474;-59
2023/09/19 05:45:22;;;;;;;12.57;4.80;;;13.80;1.00;;;;;;5034101;28;20742;-59
2023/09/19 05:47:49;;;;;;;20.03;5.50;;;13.80;1.00;;;;;;5035490;28;20531;-59
2023/09/19 05:50:18;;;;;;;10.33;4.60;;;13.90;1.00;;;;;;5037558;28;20503;-59
2023/09/19 05:52:53;;;;;;;12.20;4.37;;;13.90;5.70;;;;;;5037713;28;20806;-59
2023/09/19 05:55:20;;;;;;;13.87;5.20;;;14.00;1.00;;;;;;5037602;28;20465;-59
2023/09/19 05:57:52;;;;;;;15.20;4.37;;;14.00;1.00;;;;;;5037294;28;20917;-59
2023/09/19 06:00:24;;;;;;;11.13;3.80;;;14.10;1.00;;;;;;5036953;28;20470;-58
2023/09/19 06:02:53;;;;;;;8.57;4.10;;;14.10;1.00;;;;;;5037500;28;20542;-58
2023/09/19 06:05:20;;;;;;;11.63;3.97;;;14.10;99.90;;;;;;5037111;28;20493;-59
2023/09/19 06:07:48;;;;;;;11.97;4.53;;;14.20;1.00;;;;;;5037211;28;20763;-59
2023/09/19 06:10:17;;;;;;;11.27;4.77;;;14.20;1.00;;;;;;5036991;28;20811;-58
2023/09/19 06:12:45;;;;;;;10.10;4.43;;;14.20;1.00;;;;;;5037670;28;20499;-59
2023/09/19 06:15:15;;;;;;;10.80;3.87;;;14.30;1.00;;;;;;5037414;28;20462;-58
2023/09/19 06:17:43;;;;;;;13.13;4.60;;;14.30;99.90;;;;;;5036774;28;20539;-58
2023/09/19 06:20:14;;;;;;;8.80;3.93;;;14.40;99.90;;;;;;5037194;28;20455;-58
2023/09/19 06:22:42;;;;;;;9.77;4.43;;;14.40;99.90;;;;;;5036609;28;20469;-59
2023/09/19 06:25:11;;;;;;;13.37;3.87;;;14.40;99.90;;;;;;5037340;28;20547;-59
2023/09/19 06:27:41;;;;;;;8.93;4.37;;;14.40;99.90;;;;;;5036984;28;20903;-59
2023/09/19 06:30:11;;;;;;;8.90;3.83;;;14.50;99.90;;;;;;5037199;28;20470;-58
2023/09/19 06:32:38;;;;;;;9.50;3.90;;;14.50;99.90;;;;;;5037218;28;20756;-58
2023/09/19 06:35:10;;;;;;;16.40;4.20;;;14.50;99.90;;;;;;5036580;28;20545;-58
2023/09/19 06:37:38;;;;;;;8.20;3.77;;;14.60;99.90;;;;;;5036994;28;20471;-58
2023/09/19 06:40:13;;;;;;;13.30;4.57;;;14.60;99.90;;;;;;5036826;28;20498;-58
2023/09/19 06:42:41;;;;;;;14.60;4.80;;;14.60;99.90;;;;;;5036397;28;20477;-58
2023/09/19 06:45:11;;;;;;;9.97;4.83;;;14.70;1.00;;;;;;5036198;28;21125;-58
2023/09/19 06:47:38;;;;;;;11.30;3.87;;;14.70;1.00;;;;;;5035460;28;20546;-58
2023/09/19 06:50:12;;;;;;;9.90;4.27;;;14.80;1.00;;;;;;5036683;28;20507;-58
2023/09/19 06:52:40;;;;;;;10.20;4.90;;;14.80;1.00;;;;;;5036724;28;20967;-58
2023/09/19 06:55:09;;;;;;;8.90;3.73;;;14.80;1.00;;;;;;5037079;28;20857;-58
2023/09/19 06:57:37;;;;;;;11.53;3.90;;;14.70;1.00;;;;;;5036315;28;20478;-58
2023/09/19 07:00:09;;;;;;;14.07;4.57;;;14.80;1.00;;;;;;5035362;28;20463;-57
2023/09/19 07:02:36;;;;;;;11.03;3.90;;;14.90;1.00;;;;;;5036621;28;20487;-58
2023/09/19 07:05:05;;;;;;;6.30;3.30;;;15.00;99.90;;;;;;5036323;28;20791;-58
2023/09/19 07:07:34;;;;;;;12.00;3.93;;;15.10;1.00;;;;;;5036261;28;20516;-57
2023/09/19 07:10:02;;;;;;;10.47;4.23;;;15.10;1.00;;;;;;5036451;28;20502;-58
2023/09/19 07:12:29;;;;;;;11.90;5.43;;;15.20;1.00;;;;;;5036318;28;20512;-58
2023/09/19 07:14:56;;;;;;;8.90;3.80;;;15.30;1.00;;;;;;5036091;28;20512;-58
2023/09/19 07:17:24;;;;;;;9.10;4.37;;;15.30;1.00;;;;;;5035479;28;20880;-57
2023/09/19 07:19:51;;;;;;;11.60;4.30;;;15.40;1.00;;;;;;5034798;28;20467;-58
2023/09/19 07:22:19;;;;;;;11.10;4.53;;;15.50;1.00;;;;;;5035746;28;20495;-58
2023/09/19 07:24:48;;;;;;;9.77;4.17;;;15.50;1.00;;;;;;5035889;28;20791;-57
2023/09/19 07:27:16;;;;;;;11.30;3.73;;;15.70;1.00;;;;;;5035269;28;20821;-58
2023/09/19 07:29:44;;;;;;;11.23;3.90;;;15.70;99.90;;;;;;5035997;28;20736;-57
2023/09/19 07:32:13;;;;;;;14.23;4.93;;;15.80;99.90;;;;;;5035330;28;21002;-58
2023/09/19 07:34:41;;;;;;;11.97;3.93;;;15.90;99.90;;;;;;5035504;28;20759;-59
2023/09/19 07:37:09;;;;;;;10.40;4.53;;;15.80;99.90;;;;;;5035930;28;22202;-58
2023/09/19 07:39:36;;;;;;;9.67;4.40;;;15.80;99.90;;;;;;5035128;28;20488;-58
2023/09/19 07:42:07;;;;;;;9.63;4.67;;;15.90;99.90;;;;;;5035944;28;20466;-57
2023/09/19 07:44:36;;;;;;;15.50;4.67;;;15.90;99.90;;;;;;5035874;28;20495;-58
2023/09/19 07:47:03;;;;;;;8.37;3.90;;;15.90;99.90;;;;;;5036145;28;20459;-58
2023/09/19 07:49:30;;;;;;;9.30;4.60;;;16.00;99.90;;;;;;5035434;28;20782;-58
2023/09/19 07:51:58;;;;;;;11.37;3.70;;;16.00;99.90;;;;;;5034949;28;20971;-58
2023/09/19 07:54:26;;;;;;;9.90;3.83;;;16.10;99.90;;;;;;5034954;28;20459;-59
2023/09/19 07:56:53;;;;;;;6.60;3.67;;;16.20;99.90;;;;;;5034547;28;20895;-58
2023/09/19 07:59:23;;;;;;;11.07;4.13;;;16.20;99.90;;;;;;5034606;28;20493;-58
2023/09/19 08:01:50;;;;;;;9.03;3.70;;;16.30;99.90;;;;;;5034664;28;20473;-58
2023/09/19 08:04:19;;;;;;;13.57;3.93;;;16.40;92.30;;;;;;5021484;27;20527;-58
2023/09/19 08:06:46;;;;;;;7.13;3.50;;;16.40;19.50;;;;;;5033522;28;20470;-58
2023/09/19 08:09:20;;;;;;;13.50;4.20;;;16.50;18.30;;;;;;5034183;28;20532;-58
2023/09/19 08:11:48;;;;;;;10.73;4.83;;;16.50;1.00;;;;;;5031952;28;20459;-58
2023/09/19 08:14:15;;;;;;;9.43;4.30;;;16.40;1.00;;;;;;5032338;28;20464;-59
2023/09/19 08:16:44;;;;;;;9.90;3.53;;;16.40;1.00;;;;;;5033140;28;20460;-59
2023/09/19 08:19:11;;;;;;;10.50;3.90;;;16.40;1.00;;;;;;5033553;28;20551;-57
2023/09/19 08:21:39;;;;;;;13.60;5.13;;;16.40;1.00;;;;;;5032511;28;20464;-59
2023/09/19 08:24:07;;;;;;;6.90;4.30;;;16.30;1.00;;;;;;5031329;28;20594;-59
2023/09/19 08:26:37;;;;;;;13.43;4.23;;;16.50;1.00;;;;;;5033236;28;20441;-55
2023/09/19 08:29:06;;;;;;;10.70;4.23;;;16.70;1.00;;;;;;5034021;28;20464;-57
2023/09/19 08:31:34;;;;;;;10.80;3.83;;;16.70;1.00;;;;;;5032060;28;20516;-58
2023/09/19 08:34:03;;;;;;;9.37;4.10;;;16.70;1.00;;;;;;5032090;28;20813;-59
2023/09/19 08:36:30;;;;;;;9.13;3.63;;;16.70;1.00;;;;;;5033575;28;20434;-59
2023/09/19 08:38:58;;;;;;;8.60;3.77;;;17.00;1.00;;;;;;5034688;28;20459;-58
2023/09/19 08:41:25;;;;;;;9.30;4.17;;;16.80;1.00;;;;;;5034685;28;20459;-59
2023/09/19 08:43:53;;;;;;;11.27;4.10;;;16.90;1.00;;;;;;5034662;28;20487;-59
2023/09/19 08:46:26;;;;;;;9.53;3.83;;;17.00;1.00;;;;;;5035847;28;20470;-60
2023/09/19 08:49:04;;;;;;;15.67;4.80;;;17.10;1.00;;;;;;5036951;28;20476;-59
2023/09/19 08:51:41;;;;;;;8.97;4.00;;;17.20;1.00;;;;;;5036546;28;20479;-60
2023/09/19 08:54:09;;;;;;;10.30;3.63;;;17.30;1.00;;;;;;5036030;28;20490;-60
2023/09/19 08:56:39;;;;;;;15.90;4.10;;;17.40;1.00;;;;;;5036510;28;20463;-60
2023/09/19 08:59:07;;;;;;;12.40;3.57;;;17.50;1.00;;;;;;5036200;28;20463;-61
2023/09/19 09:01:35;;;;;;;9.97;3.63;;;17.60;1.00;;;;;;5036268;28;20457;-60
2023/09/19 09:04:03;;;;;;;11.40;4.47;;;17.60;1.00;;;;;;5036289;28;20551;-61
2023/09/19 09:06:33;;;;;;;6.10;3.70;;;17.80;1.00;;;;;;5036887;28;20752;-60
2023/09/19 09:09:01;;;;;;;10.07;4.20;;;17.90;1.00;;;;;;5036122;28;20475;-60
2023/09/19 09:11:28;;;;;;;10.70;3.93;;;17.90;1.00;;;;;;5035671;28;20546;-60
2023/09/19 09:13:57;;;;;;;11.80;4.17;;;17.70;1.00;;;;;;5036029;28;20498;-60
2023/09/19 09:16:25;;;;;;;9.63;3.63;;;17.80;1.00;;;;;;5035876;28;20463;-61
2023/09/19 09:18:54;;;;;;;9.33;3.70;;;17.80;1.00;;;;;;5035994;28;20440;-61
2023/09/19 09:21:21;;;;;;;9.43;4.33;;;18.00;99.90;;;;;;5035673;28;20951;-61
2023/09/19 09:23:53;;;;;;;9.43;3.70;;;17.90;99.90;;;;;;5035402;28;20497;-60
2023/09/19 09:26:42;;;;;;;9.00;3.80;;;18.20;99.90;;;;;;5035500;28;20797;-61
2023/09/19 09:29:10;;;;;;;11.83;4.00;;;18.40;99.90;;;;;;5035973;28;20462;-60
2023/09/19 09:31:37;;;;;;;9.20;3.80;;;18.30;99.90;;;;;;5034389;28;20482;-60
2023/09/19 09:34:05;;;;;;;7.77;3.90;;;18.40;99.90;;;;;;5031199;28;20499;-61
2023/09/19 09:36:37;;;;;;;7.67;3.30;;;18.60;99.90;;;;;;5031172;28;20538;-60
2023/09/19 09:39:18;;;;;;;8.87;3.83;;;18.50;99.90;;;;;;5032230;28;20546;-61
2023/09/19 09:41:45;;;;;;;8.00;4.20;;;18.30;99.90;;;;;;5033129;28;20465;-60
2023/09/19 09:44:17;;;;;;;11.67;4.00;;;18.50;99.90;;;;;;5035387;28;20456;-60
2023/09/19 09:47:27;;;;;;;8.13;3.40;;;18.30;99.90;;;;;;5035773;28;20463;-61
2023/09/19 09:49:54;;;;;;;11.87;3.90;;;18.50;99.90;;;;;;5035133;28;20466;-60
2023/09/19 09:52:24;;;;;;;10.00;4.50;;;18.70;1.00;;;;;;5034052;28;20451;-60
2023/09/19 09:55:05;;;;;;;8.73;3.63;;;18.80;99.90;;;;;;5034329;28;20459;-60
2023/09/19 09:57:33;;;;;;;8.93;4.53;;;19.00;99.90;;;;;;5034965;28;20964;-61
2023/09/19 10:00:16;;;;;;;10.47;3.80;;;19.30;99.30;;;;;;5033730;28;20442;-60
2023/09/19 10:02:46;;;;;;;8.97;3.70;;;19.50;99.90;;;;;;5034692;28;20491;-61
2023/09/19 10:05:21;;;;;;;9.83;3.70;;;19.30;97.90;;;;;;5033954;28;20494;-59
2023/09/19 10:07:51;;;;;;;10.03;3.70;;;19.20;1.00;;;;;;5033750;28;20463;-60
2023/09/19 10:10:43;;;;;;;7.00;3.70;;;19.20;99.90;;;;;;5035265;28;20497;-60
2023/09/19 10:13:14;;;;;;;8.20;4.13;;;19.20;1.00;;;;;;5034219;28;20463;-59
2023/09/19 10:15:50;;;;;;;8.30;4.30;;;19.20;99.90;;;;;;5033898;28;20455;-60
2023/09/19 10:18:21;;;;;;;7.03;4.47;;;19.00;95.40;;;;;;5034331;28;20511;-60
2023/09/19 10:20:50;;;;;;;10.50;3.73;;;18.60;1.00;;;;;;5035003;28;20455;-62
2023/09/19 10:23:22;;;;;;;9.47;3.70;;;18.50;1.00;;;;;;5034336;28;20470;-60
2023/09/19 10:25:51;;;;;;;6.47;3.90;;;18.20;1.00;;;;;;5034635;28;20491;-59
2023/09/19 10:28:21;;;;;;;8.77;4.20;;;18.40;1.00;;;;;;5034404;28;20459;-60
2023/09/19 10:30:51;;;;;;;7.00;3.80;;;18.70;1.00;;;;;;5033881;28;20463;-60
2023/09/19 10:33:20;;;;;;;6.87;3.87;;;18.80;2.40;;;;;;5034746;28;20458;-59
2023/09/19 10:35:49;;;;;;;10.20;4.53;;;19.00;99.90;;;;;;5037537;28;20505;-60
2023/09/19 10:38:23;;;;;;;7.67;3.70;;;19.40;1.00;;;;;;5037025;28;20487;-61
2023/09/19 10:40:59;;;;;;;5.77;3.57;;;19.70;38.50;;;;;;5034069;28;20458;-59
2023/09/19 10:43:31;;;;;;;7.70;3.77;;;19.80;6.60;;;;;;5026325;28;20470;-58
2023/09/19 10:46:03;;;;;;;8.23;3.47;;;20.10;84.90;;;;;;5030756;28;20880;-58
2023/09/19 10:48:32;;;;;;;9.60;4.30;;;20.40;99.90;;;;;;5016532;28;20456;-57
2023/09/19 10:51:07;;;;;;;11.83;4.80;;;20.90;99.90;;;;;;5016072;28;20466;-59
2023/09/19 10:53:45;;;;;;;5.43;3.53;;;21.40;99.90;;;;;;5015659;28;20460;-59
2023/09/19 10:56:20;;;;;;;6.73;3.60;;;21.60;99.90;;;;;;5015972;28;20467;-58
2023/09/19 10:58:49;;;;;;;8.50;4.17;;;21.60;99.90;;;;;;5016666;28;20463;-59
2023/09/19 11:01:17;;;;;;;6.90;3.70;;;21.60;99.90;;;;;;5014620;28;20503;-59
2023/09/19 11:03:45;;;;;;;6.77;3.10;;;21.80;99.90;;;;;;5015145;28;20558;-59
2023/09/19 11:06:16;;;;;;;6.30;3.43;;;21.60;99.90;;;;;;5026981;27;21017;-58
2023/09/19 11:09:21;;;;;;;8.40;4.03;;;21.00;99.90;;;;;;5035964;28;20463;-58
2023/09/19 11:11:55;;;;;;;7.77;3.77;;;20.70;99.90;;;;;;5038535;28;20478;-58
2023/09/19 11:14:38;;;;;;;15.40;3.67;;;20.80;99.90;;;;;;5036044;28;20911;-58
2023/09/19 11:17:42;;;;;;;5.90;3.20;;;21.10;99.90;;;;;;5036422;28;20454;-57
2023/09/19 11:20:41;;;;;;;11.43;4.20;;;21.70;99.90;;;;;;5035713;28;20451;-59
2023/09/19 11:23:24;;;;;;;7.63;3.20;;;21.60;99.90;;;;;;5032953;28;20819;-59
2023/09/19 11:25:53;;;;;;;8.90;4.17;;;21.70;99.90;;;;;;5014632;28;20519;-62
2023/09/19 11:28:33;;;;;;;9.03;3.77;;;21.70;99.90;;;;;;5016128;28;20554;-60
2023/09/19 11:31:00;;;;;;;6.47;3.40;;;21.20;99.90;;;;;;5034468;28;20538;-59
2023/09/19 11:33:33;;;;;;;9.33;3.53;;;21.00;99.90;;;;;;5034914;28;20459;-59
2023/09/19 11:36:03;;;;;;;8.13;3.53;;;21.00;99.90;;;;;;5035114;28;20511;-58
2023/09/19 11:39:01;;;;;;;6.30;3.70;;;21.40;99.90;;;;;;5035529;28;20821;-58
2023/09/19 11:41:41;;;;;;;6.23;3.17;;;21.90;99.90;;;;;;5035979;28;20565;-59
2023/09/19 11:44:38;;;;;;;10.17;4.00;;;21.90;99.90;;;;;;5035809;28;20801;-60
2023/09/19 11:47:09;;;;;;;7.10;3.80;;;21.90;99.90;;;;;;5015617;28;20448;-55
2023/09/19 11:49:42;;;;;;;9.33;3.53;;;22.30;99.90;;;;;;5013892;28;20896;-58
2023/09/19 11:52:10;;;;;;;5.03;3.50;;;22.70;99.90;;;;;;5013779;28;20466;-54
2023/09/19 11:54:41;;;;;;;7.87;3.50;;;22.60;99.90;;;;;;5014222;28;20957;-60
2023/09/19 11:57:11;;;;;;;6.17;3.53;;;21.90;99.90;;;;;;5014414;28;20514;-59
2023/09/19 11:59:40;;;;;;;11.10;4.03;;;21.50;99.90;;;;;;5013916;28;20460;-58
2023/09/19 12:02:10;;;;;;;6.13;3.57;;;21.30;66.40;;;;;;5014077;28;20567;-60
2023/09/19 12:04:41;;;;;;;6.17;3.23;;;21.00;99.90;;;;;;5015912;28;20434;-53
2023/09/19 12:07:15;;;;;;;7.17;3.43;;;21.00;39.00;;;;;;5015653;28;20503;-59
2023/09/19 12:09:44;;;;;;;7.40;3.80;;;20.80;33.10;;;;;;5015558;28;20821;-57
2023/09/19 12:12:16;;;;;;;10.50;4.23;;;20.80;32.50;;;;;;5015247;28;20467;-61
2023/09/19 12:14:49;;;;;;;6.30;3.47;;;21.00;15.40;;;;;;5015566;28;20520;-58
2023/09/19 12:17:18;;;;;;;6.13;3.83;;;21.70;83.80;;;;;;5015223;28;20897;-61
2023/09/19 12:19:52;;;;;;;7.97;3.77;;;22.30;99.90;;;;;;5015142;28;20517;-60
2023/09/19 12:22:20;;;;;;;5.73;3.77;;;22.40;98.20;;;;;;5014347;28;20456;-57
2023/09/19 12:24:48;;;;;;;5.40;3.67;;;22.50;99.90;;;;;;5015252;28;20460;-58
2023/09/19 12:27:17;;;;;;;4.37;3.00;;;22.40;99.90;;;;;;5014708;28;20495;-57
2023/09/19 12:29:48;;;;;;;7.30;3.70;;;22.70;99.90;;;;;;5015057;28;20459;-58
2023/09/19 12:32:16;;;;;;;7.07;3.50;;;23.20;99.90;;;;;;5015598;28;20834;-59
2023/09/19 12:34:52;;;;;;;11.23;3.70;;;23.10;95.50;;;;;;5015696;28;20464;-58
2023/09/19 12:37:22;;;;;;;5.93;3.77;;;23.30;89.10;;;;;;5014997;28;20459;-55
2023/09/19 12:39:51;;;;;;;8.83;3.70;;;23.30;99.90;;;;;;5015543;28;20818;-57
2023/09/19 12:42:20;;;;;;;9.50;3.23;;;23.50;89.10;;;;;;5014825;28;20496;-54
2023/09/19 12:44:55;;;;;;;7.40;3.33;;;23.50;41.00;;;;;;5015254;28;20560;-59
2023/09/19 12:47:23;;;;;;;6.60;3.47;;;23.50;31.50;;;;;;5013402;28;20525;-57
2023/09/19 12:50:14;;;;;;;5.40;3.33;;;23.60;47.20;;;;;;5022075;28;20528;-58
2023/09/19 12:52:43;;;;;;;5.83;3.30;;;24.10;37.40;;;;;;5034245;28;20494;-58
2023/09/19 12:55:22;;;;;;;5.77;3.80;;;23.90;33.90;;;;;;5024242;28;20462;-59
2023/09/19 12:58:09;;;;;;;5.27;3.30;;;24.00;35.80;;;;;;5013821;28;20456;-59
2023/09/19 13:00:40;;;;;;;6.27;3.53;;;23.50;1.00;;;;;;5014448;28;20942;-59
2023/09/19 13:03:18;;;;;;;5.20;2.93;;;23.20;1.20;;;;;;5014217;28;20912;-57
2023/09/19 13:05:53;;;;;;;4.10;3.60;;;23.40;3.30;;;;;;5013193;28;20548;-59